Time;durP1;ratioP1;P1;durP2;ratioP2;P2;SDS_P1;SDS_P2;PMS_P1;PMS_P2;Temp;Humidity;BMP_temperature;BMP_pressure;BME280_temperature;BME280_humidity;BME280_pressure;Samples;Min_cycle;Max_cycle;Signal;HPM_P1;HPM_P2
2024/01/17 00:00:08;;;;;;;7.78;3.83;;;;;;;-148.88;100.00;-17125.47;5031618;28;20498;-87
2024/01/17 00:02:34;;;;;;;9.50;3.05;;;;;;;-148.88;100.00;-17125.47;5031819;28;20384;-87
2024/01/17 00:04:59;;;;;;;6.70;3.33;;;;;;;-148.88;100.00;-17125.47;5031792;28;20079;-87
2024/01/17 00:07:24;;;;;;;5.90;3.17;;;;;;;-148.88;100.00;-17125.47;5033209;28;20360;-87
2024/01/17 00:09:50;;;;;;;11.80;3.85;;;;;;;-148.88;100.00;-17125.47;5032513;28;20029;-87
2024/01/17 00:12:16;;;;;;;8.80;3.67;;;;;;;-148.88;100.00;-17125.47;5033286;28;20036;-86
2024/01/17 00:14:42;;;;;;;6.70;3.42;;;;;;;-148.88;100.00;-17125.47;5033120;28;20460;-87
2024/01/17 00:17:08;;;;;;;9.75;3.72;;;;;;;-148.88;100.00;-17125.47;5031466;28;20025;-88
2024/01/17 00:19:42;;;;;;;8.82;3.67;;;;;;;-148.88;100.00;-17125.47;5031731;28;20075;-88
2024/01/17 00:22:08;;;;;;;8.00;3.65;;;;;;;-148.88;100.00;-17125.47;5033070;28;20057;-87
2024/01/17 00:24:33;;;;;;;9.88;3.33;;;;;;;-148.88;100.00;-17125.47;5033130;28;20048;-87
2024/01/17 00:26:59;;;;;;;10.10;3.55;;;;;;;-148.88;100.00;-17125.47;5033695;28;20049;-88
2024/01/17 00:29:24;;;;;;;7.63;3.53;;;;;;;-148.88;100.00;-17125.47;5032391;28;20021;-87
2024/01/17 00:31:52;;;;;;;10.57;3.65;;;;;;;-148.88;100.00;-17125.47;5033306;28;20476;-87
2024/01/17 00:34:18;;;;;;;11.40;3.30;;;;;;;-148.88;100.00;-17125.47;5031563;28;20025;-87
2024/01/17 00:36:43;;;;;;;8.80;3.30;;;;;;;-148.88;100.00;-17125.47;5031451;28;20534;-87
2024/01/17 00:39:09;;;;;;;13.20;3.95;;;;;;;-148.88;100.00;-17125.47;5032931;28;20032;-87
2024/01/17 00:41:34;;;;;;;9.02;3.20;;;;;;;-148.88;100.00;-17125.47;5032016;28;20108;-88
2024/01/17 00:43:59;;;;;;;14.02;4.57;;;;;;;-148.88;100.00;-17125.47;5033074;28;20033;-87
2024/01/17 00:46:25;;;;;;;7.78;2.85;;;;;;;-148.88;100.00;-17125.47;5032264;28;20566;-87
2024/01/17 00:48:50;;;;;;;6.18;2.72;;;;;;;-148.88;100.00;-17125.47;5031555;28;20092;-87
2024/01/17 00:51:23;;;;;;;6.78;3.20;;;;;;;-148.88;100.00;-17125.47;5032725;28;20049;-87
2024/01/17 00:53:48;;;;;;;5.53;2.67;;;;;;;-148.88;100.00;-17125.47;5031416;28;20392;-87
2024/01/17 00:56:14;;;;;;;7.47;3.15;;;;;;;-148.88;100.00;-17125.47;5031541;28;20029;-87
2024/01/17 00:58:39;;;;;;;5.70;3.08;;;;;;;-148.88;100.00;-17125.47;5032616;28;20076;-87
2024/01/17 01:01:04;;;;;;;13.07;3.75;;;;;;;-148.88;100.00;-17125.47;5032058;28;20021;-87
2024/01/17 01:03:31;;;;;;;9.55;3.30;;;;;;;-148.88;100.00;-17125.47;5031940;28;20437;-87
2024/01/17 01:05:56;;;;;;;4.82;2.78;;;;;;;-148.88;100.00;-17125.47;5031926;28;20026;-87
2024/01/17 01:08:22;;;;;;;5.95;3.05;;;;;;;-148.88;100.00;-17125.47;5034354;28;20029;-86
2024/01/17 01:10:47;;;;;;;6.30;3.10;;;;;;;-148.88;100.00;-17125.47;5034906;28;20112;-87
2024/01/17 01:13:12;;;;;;;7.97;2.72;;;;;;;-148.88;100.00;-17125.47;5034856;28;20116;-86
2024/01/17 01:15:38;;;;;;;11.15;3.05;;;;;;;-148.88;100.00;-17125.47;5036083;28;20021;-88
2024/01/17 01:18:03;;;;;;;5.93;2.88;;;;;;;-148.88;100.00;-17125.47;5036007;28;20391;-88
2024/01/17 01:20:29;;;;;;;9.10;2.80;;;;;;;-148.88;100.00;-17125.47;5036241;28;20396;-87
2024/01/17 01:22:55;;;;;;;8.30;3.20;;;;;;;-148.88;100.00;-17125.47;5034568;28;20017;-87
2024/01/17 01:25:20;;;;;;;6.05;3.42;;;;;;;-148.88;100.00;-17125.47;5035762;28;20459;-87
2024/01/17 01:27:45;;;;;;;8.07;3.58;;;;;;;-148.88;100.00;-17125.47;5035708;28;20025;-86
2024/01/17 01:30:11;;;;;;;10.20;3.10;;;;;;;-148.88;100.00;-17125.47;5034602;28;20039;-87
2024/01/17 01:32:37;;;;;;;8.07;2.80;;;;;;;-148.88;100.00;-17125.47;5034443;28;20018;-87
2024/01/17 01:35:03;;;;;;;11.75;3.40;;;;;;;-148.88;100.00;-17125.47;5034903;28;20423;-87
2024/01/17 01:37:28;;;;;;;10.20;3.45;;;;;;;-148.88;100.00;-17125.47;5035888;28;20036;-87
2024/01/17 01:39:53;;;;;;;11.80;3.95;;;;;;;-148.88;100.00;-17125.47;5036696;28;20049;-87
2024/01/17 01:42:19;;;;;;;7.75;3.17;;;;;;;-148.88;100.00;-17125.47;5035769;28;20068;-87
2024/01/17 01:44:45;;;;;;;10.82;3.53;;;;;;;-148.88;100.00;-17125.47;5036670;28;20030;-88
2024/01/17 01:47:12;;;;;;;10.27;3.30;;;;;;;-148.88;100.00;-17125.47;5034297;28;20486;-87
2024/01/17 01:49:39;;;;;;;10.63;3.45;;;;;;;-148.88;100.00;-17125.47;5038586;28;20026;-89
2024/01/17 01:52:08;;;;;;;8.25;3.25;;;;;;;-148.88;100.00;-17125.47;5037626;28;20052;-88
2024/01/17 01:54:38;;;;;;;8.55;3.13;;;;;;;-148.88;100.00;-17125.47;5034189;28;20049;-88
2024/01/17 01:57:04;;;;;;;11.07;4.72;;;;;;;-148.88;100.00;-17125.47;5033944;28;20025;-88
2024/01/17 01:59:30;;;;;;;13.43;3.42;;;;;;;-148.88;100.00;-17125.47;5035531;28;20056;-88
2024/01/17 02:01:56;;;;;;;7.00;2.92;;;;;;;-148.88;100.00;-17125.47;5035645;28;20495;-88
2024/01/17 02:04:22;;;;;;;10.30;3.75;;;;;;;-148.88;100.00;-17125.47;5034404;28;20075;-87
2024/01/17 02:06:48;;;;;;;8.30;3.65;;;;;;;-148.88;100.00;-17125.47;5035029;28;20018;-87
2024/01/17 02:09:14;;;;;;;5.10;2.92;;;;;;;-148.88;100.00;-17125.47;5035075;28;20318;-86
2024/01/17 02:11:40;;;;;;;10.02;3.83;;;;;;;-148.88;100.00;-17125.47;5035162;28;20017;-87
2024/01/17 02:14:05;;;;;;;17.30;3.58;;;;;;;-148.88;100.00;-17125.47;5034920;28;20365;-87
2024/01/17 02:16:33;;;;;;;8.95;3.97;;;;;;;-148.88;100.00;-17125.47;5034925;28;20424;-87
2024/01/17 02:18:58;;;;;;;9.98;3.83;;;;;;;-148.88;100.00;-17125.47;5034412;28;20053;-88
2024/01/17 02:21:26;;;;;;;9.40;4.35;;;;;;;-148.88;100.00;-17125.47;5034579;28;20041;-87
2024/01/17 02:23:52;;;;;;;10.77;3.65;;;;;;;-148.88;100.00;-17125.47;5034717;28;20476;-86
2024/01/17 02:26:17;;;;;;;11.65;3.65;;;;;;;-148.88;100.00;-17125.47;5034411;28;20105;-87
2024/01/17 02:28:42;;;;;;;14.05;3.65;;;;;;;-148.88;100.00;-17125.47;5034707;28;20387;-86
2024/01/17 02:31:09;;;;;;;11.75;4.20;;;;;;;-148.88;100.00;-17125.47;5034736;28;20586;-87
2024/01/17 02:33:35;;;;;;;11.48;4.70;;;;;;;-148.88;100.00;-17125.47;5034723;28;20025;-87
2024/01/17 02:36:00;;;;;;;10.98;4.50;;;;;;;-148.88;100.00;-17125.47;5034481;28;20022;-87
2024/01/17 02:38:26;;;;;;;16.13;4.60;;;;;;;-148.88;100.00;-17125.47;5034603;28;20032;-88
2024/01/17 02:40:51;;;;;;;9.73;3.72;;;;;;;-148.88;100.00;-17125.47;5034429;28;20472;-87
2024/01/17 02:43:16;;;;;;;9.00;3.83;;;;;;;-148.88;100.00;-17125.47;5034824;28;20025;-87
2024/01/17 02:45:42;;;;;;;10.80;4.03;;;;;;;-148.88;100.00;-17125.47;5034167;28;20031;-86
2024/01/17 02:48:07;;;;;;;10.25;3.95;;;;;;;-148.88;100.00;-17125.47;5034196;28;20017;-87
2024/01/17 02:50:32;;;;;;;11.18;4.43;;;;;;;-148.88;100.00;-17125.47;5034223;28;20104;-87
2024/01/17 02:52:58;;;;;;;7.40;3.30;;;;;;;-148.88;100.00;-17125.47;5034154;28;20110;-85
2024/01/17 02:55:23;;;;;;;13.73;4.53;;;;;;;-148.88;100.00;-17125.47;5034455;28;20017;-87
2024/01/17 02:57:53;;;;;;;8.70;3.47;;;;;;;-148.88;100.00;-17125.47;5034253;28;20392;-87
2024/01/17 03:00:19;;;;;;;16.33;3.78;;;;;;;-148.88;100.00;-17125.47;5034007;28;20033;-87
2024/01/17 03:02:44;;;;;;;7.65;3.85;;;;;;;-148.88;100.00;-17125.47;5032831;28;20025;-86
2024/01/17 03:08:31;;;;;;;8.70;3.08;;;;;;;-148.88;100.00;-17125.47;5033832;28;20120;-87
2024/01/17 03:10:57;;;;;;;10.00;3.38;;;;;;;-148.88;100.00;-17125.47;5032641;28;20116;-87
2024/01/17 03:13:22;;;;;;;11.40;4.30;;;;;;;-148.88;100.00;-17125.47;5032648;28;20026;-86
2024/01/17 03:15:47;;;;;;;8.23;3.55;;;;;;;-148.88;100.00;-17125.47;5033897;28;20021;-87
2024/01/17 03:18:16;;;;;;;8.02;3.10;;;;;;;-148.88;100.00;-17125.47;5033775;28;20058;-86
2024/01/17 03:20:42;;;;;;;7.30;3.80;;;;;;;-148.88;100.00;-17125.47;5034155;28;20514;-86
2024/01/17 03:23:07;;;;;;;15.60;3.95;;;;;;;-148.88;100.00;-17125.47;5033608;28;20037;-87
2024/01/17 03:25:33;;;;;;;9.95;3.55;;;;;;;-148.88;100.00;-17125.47;5033725;28;20430;-87
2024/01/17 03:27:58;;;;;;;6.93;3.30;;;;;;;-148.88;100.00;-17125.47;5033593;28;20021;-87
2024/01/17 03:30:23;;;;;;;8.00;3.30;;;;;;;-148.88;100.00;-17125.47;5032590;28;20027;-87
2024/01/17 03:32:49;;;;;;;9.35;3.33;;;;;;;-148.88;100.00;-17125.47;5034189;28;20025;-87
2024/01/17 03:35:14;;;;;;;5.68;3.17;;;;;;;-148.88;100.00;-17125.47;5034227;28;20029;-87
2024/01/17 03:37:40;;;;;;;10.82;4.25;;;;;;;-148.88;100.00;-17125.47;5034446;28;20032;-86
2024/01/17 03:40:05;;;;;;;8.52;4.15;;;;;;;-148.88;100.00;-17125.47;5033492;28;20025;-87
2024/01/17 03:42:31;;;;;;;6.00;2.90;;;;;;;-148.88;100.00;-17125.47;5033394;28;20395;-87
2024/01/17 03:44:56;;;;;;;7.15;2.85;;;;;;;-148.88;100.00;-17125.47;5033168;28;20480;-87
2024/01/17 03:47:22;;;;;;;6.45;3.50;;;;;;;-148.88;100.00;-17125.47;5033619;28;20040;-87
2024/01/17 03:49:47;;;;;;;4.88;3.13;;;;;;;-148.88;100.00;-17125.47;5033251;28;20037;-86
2024/01/17 03:52:12;;;;;;;8.52;3.00;;;;;;;-148.88;100.00;-17125.47;5033439;28;20026;-88
2024/01/17 03:54:38;;;;;;;8.57;3.30;;;;;;;-148.88;100.00;-17125.47;5033287;28;20033;-87
2024/01/17 03:57:04;;;;;;;14.32;4.22;;;;;;;-148.88;100.00;-17125.47;5033038;28;20152;-87
2024/01/17 03:59:30;;;;;;;6.18;3.38;;;;;;;-148.88;100.00;-17125.47;5033385;28;20060;-86
2024/01/17 04:01:55;;;;;;;7.22;3.35;;;;;;;-148.88;100.00;-17125.47;5033479;28;20396;-87
2024/01/17 04:04:21;;;;;;;8.32;3.13;;;;;;;-148.88;100.00;-17125.47;5033173;28;20032;-87
2024/01/17 04:06:46;;;;;;;10.20;3.50;;;;;;;-148.88;100.00;-17125.47;5033290;28;20021;-87
2024/01/17 04:09:12;;;;;;;14.95;3.92;;;;;;;-148.88;100.00;-17125.47;5033424;28;20068;-87
2024/01/17 04:11:37;;;;;;;8.95;3.80;;;;;;;-148.88;100.00;-17125.47;5033228;28;20049;-86
2024/01/17 04:14:02;;;;;;;9.85;3.90;;;;;;;-148.88;100.00;-17125.47;5033123;28;20439;-87
2024/01/17 04:16:28;;;;;;;7.85;3.55;;;;;;;-148.88;100.00;-17125.47;5033236;28;20025;-87
2024/01/17 04:18:53;;;;;;;7.57;3.35;;;;;;;-148.88;100.00;-17125.47;5033666;28;20033;-88
2024/01/17 04:21:19;;;;;;;8.63;3.75;;;;;;;-148.88;100.00;-17125.47;5033134;28;20026;-87
2024/01/17 04:23:47;;;;;;;13.63;4.25;;;;;;;-148.88;100.00;-17125.47;5033078;28;20045;-87
2024/01/17 04:26:23;;;;;;;9.23;3.65;;;;;;;-148.88;100.00;-17125.47;5033237;28;20395;-87
2024/01/17 04:28:53;;;;;;;12.38;4.80;;;;;;;-148.88;100.00;-17125.47;5033268;28;20144;-87
2024/01/17 04:31:28;;;;;;;7.10;3.78;;;;;;;-148.88;100.00;-17125.47;5033181;28;20029;-87
2024/01/17 04:33:54;;;;;;;8.00;3.60;;;;;;;-148.88;100.00;-17125.47;5033040;28;20045;-87
2024/01/17 04:36:21;;;;;;;10.82;3.95;;;;;;;-148.88;100.00;-17125.47;5032882;28;20509;-87
2024/01/17 04:38:47;;;;;;;12.63;3.92;;;;;;;-148.88;100.00;-17125.47;5033283;28;20117;-86
2024/01/17 04:41:14;;;;;;;9.23;3.83;;;;;;;-148.88;100.00;-17125.47;5032946;28;20133;-87
2024/01/17 04:43:44;;;;;;;14.48;5.18;;;;;;;-148.88;100.00;-17125.47;5035182;28;20037;-86
2024/01/17 04:46:14;;;;;;;10.52;3.67;;;;;;;-148.88;100.00;-17125.47;5035305;28;20567;-86
2024/01/17 04:48:44;;;;;;;10.68;4.35;;;;;;;-148.88;100.00;-17125.47;5037117;28;20026;-86
2024/01/17 04:51:10;;;;;;;9.45;3.67;;;;;;;-148.88;100.00;-17125.47;5036353;28;20127;-86
2024/01/17 04:53:41;;;;;;;8.50;4.07;;;;;;;-148.88;100.00;-17125.47;5036695;28;20116;-86
2024/01/17 04:56:08;;;;;;;7.60;3.38;;;;;;;-148.88;100.00;-17125.47;5036313;28;20090;-87
2024/01/17 04:58:33;;;;;;;9.30;3.83;;;;;;;-148.88;100.00;-17125.47;5036586;28;20039;-87
2024/01/17 05:01:02;;;;;;;12.75;4.93;;;;;;;-148.88;100.00;-17125.47;5036772;28;20096;-87
2024/01/17 05:03:27;;;;;;;11.15;4.32;;;;;;;-148.88;100.00;-17125.47;5036177;28;20487;-87
2024/01/17 05:05:53;;;;;;;11.32;4.22;;;;;;;-148.88;100.00;-17125.47;5036056;28;20566;-87
2024/01/17 05:08:21;;;;;;;8.30;3.83;;;;;;;-148.88;100.00;-17125.47;5034822;28;20396;-87
2024/01/17 05:10:47;;;;;;;14.38;4.90;;;;;;;-148.88;100.00;-17125.47;5035833;28;20150;-85
2024/01/17 05:13:13;;;;;;;11.68;3.70;;;;;;;-148.88;100.00;-17125.47;5035466;28;20533;-87
2024/01/17 05:15:39;;;;;;;11.38;4.10;;;;;;;-148.88;100.00;-17125.47;5036363;28;20021;-85
2024/01/17 05:18:06;;;;;;;10.88;4.30;;;;;;;-148.88;100.00;-17125.47;5036155;28;20380;-88
2024/01/17 05:20:32;;;;;;;11.27;4.10;;;;;;;-148.88;100.00;-17125.47;5036237;28;20036;-87
2024/01/17 05:22:58;;;;;;;8.50;4.13;;;;;;;-148.88;100.00;-17125.47;5035760;28;20025;-88
2024/01/17 05:25:23;;;;;;;7.38;3.50;;;;;;;-148.88;100.00;-17125.47;5034517;28;20446;-87
2024/01/17 05:27:52;;;;;;;14.25;4.82;;;;;;;-148.88;100.00;-17125.47;5036207;28;20017;-87
2024/01/17 05:30:23;;;;;;;10.90;3.70;;;;;;;-148.88;100.00;-17125.47;5036186;28;20025;-85
2024/01/17 05:32:49;;;;;;;8.02;4.55;;;;;;;-148.88;100.00;-17125.47;5035686;28;20048;-85
2024/01/17 05:35:14;;;;;;;11.98;3.85;;;;;;;-148.88;100.00;-17125.47;5034391;28;20463;-86
2024/01/17 05:37:43;;;;;;;8.93;4.18;;;;;;;-148.88;100.00;-17125.47;5034612;28;20056;-85
2024/01/17 05:40:10;;;;;;;10.30;4.20;;;;;;;-148.88;100.00;-17125.47;5035895;28;20096;-86
2024/01/17 05:42:37;;;;;;;8.57;4.25;;;;;;;-148.88;100.00;-17125.47;5035700;28;20057;-84
2024/01/17 05:45:07;;;;;;;8.95;4.03;;;;;;;-148.88;100.00;-17125.47;5036011;28;20099;-86
2024/01/17 05:47:33;;;;;;;16.75;4.75;;;;;;;-148.88;100.00;-17125.47;5035248;28;20022;-87
2024/01/17 05:49:59;;;;;;;11.65;4.90;;;;;;;-148.88;100.00;-17125.47;5035896;28;20036;-87
2024/01/17 05:52:24;;;;;;;9.18;3.83;;;;;;;-148.88;100.00;-17125.47;5034273;28;20403;-86
2024/01/17 05:54:49;;;;;;;14.82;4.32;;;;;;;-148.88;100.00;-17125.47;5034892;28;20033;-86
2024/01/17 05:57:15;;;;;;;9.13;4.50;;;;;;;-148.88;100.00;-17125.47;5036051;28;20036;-86
2024/01/17 05:59:41;;;;;;;15.15;5.15;;;;;;;-148.88;100.00;-17125.47;5035327;28;20032;-86
2024/01/17 06:02:06;;;;;;;9.48;4.43;;;;;;;-148.88;100.00;-17125.47;5035581;28;20113;-88
2024/01/17 06:04:33;;;;;;;14.38;4.93;;;;;;;-148.88;100.00;-17125.47;5034731;28;20506;-88
2024/01/17 06:07:01;;;;;;;9.85;4.80;;;;;;;-148.88;100.00;-17125.47;5035349;28;20022;-88
2024/01/17 06:09:26;;;;;;;13.20;4.93;;;;;;;-148.88;100.00;-17125.47;5035636;28;20101;-86
2024/01/17 06:11:52;;;;;;;9.93;4.53;;;;;;;-148.88;100.00;-17125.47;5035387;28;20049;-87
2024/01/17 06:14:17;;;;;;;12.25;4.07;;;;;;;-148.88;100.00;-17125.47;5035199;28;20044;-87
2024/01/17 06:16:44;;;;;;;9.88;4.03;;;;;;;-148.88;100.00;-17125.47;5035407;28;20080;-87
2024/01/17 06:19:10;;;;;;;13.85;5.30;;;;;;;-148.88;100.00;-17125.47;5034205;28;20103;-88
2024/01/17 06:21:35;;;;;;;10.25;4.03;;;;;;;-148.88;100.00;-17125.47;5035886;28;20033;-88
2024/01/17 06:24:01;;;;;;;13.52;4.10;;;;;;;-148.88;100.00;-17125.47;5033640;28;20480;-87
2024/01/17 06:26:27;;;;;;;8.93;3.92;;;;;;;-148.88;100.00;-17125.47;5033861;28;20030;-87
2024/01/17 06:28:52;;;;;;;9.07;3.65;;;;;;;-148.88;100.00;-17125.47;5034957;28;20475;-87
2024/01/17 06:31:26;;;;;;;9.00;3.97;;;;;;;-148.88;100.00;-17125.47;5033741;28;20032;-88
2024/01/17 06:33:54;;;;;;;11.52;4.18;;;;;;;-148.88;100.00;-17125.47;5035562;28;20025;-87
2024/01/17 06:36:20;;;;;;;9.25;3.80;;;;;;;-148.88;100.00;-17125.47;5033783;28;20037;-87
2024/01/17 06:38:46;;;;;;;9.27;4.32;;;;;;;-148.88;100.00;-17125.47;5034742;28;20460;-87
2024/01/17 06:41:11;;;;;;;11.73;4.03;;;;;;;-148.88;100.00;-17125.47;5034219;28;20049;-88
2024/01/17 06:43:37;;;;;;;10.65;4.15;;;;;;;-148.88;100.00;-17125.47;5034999;28;20483;-88
2024/01/17 06:46:03;;;;;;;14.10;4.10;;;;;;;-148.88;100.00;-17125.47;5034988;28;20082;-88
2024/01/17 06:48:30;;;;;;;13.32;3.97;;;;;;;-148.88;100.00;-17125.47;5033270;28;20076;-88
2024/01/17 06:50:55;;;;;;;11.82;4.68;;;;;;;-148.88;100.00;-17125.47;5034372;28;20021;-86
2024/01/17 06:53:21;;;;;;;9.35;4.22;;;;;;;-148.88;100.00;-17125.47;5033621;28;20052;-85
2024/01/17 06:55:47;;;;;;;7.80;4.35;;;;;;;-148.88;100.00;-17125.47;5034152;28;20032;-86
2024/01/17 06:58:13;;;;;;;13.77;4.00;;;;;;;-148.88;100.00;-17125.47;5034075;28;20026;-85
2024/01/17 07:00:38;;;;;;;13.32;3.83;;;;;;;-148.88;100.00;-17125.47;5034116;28;20025;-86
2024/01/17 07:03:03;;;;;;;10.02;3.58;;;;;;;-148.88;100.00;-17125.47;5034286;28;20152;-86
2024/01/17 07:05:29;;;;;;;10.32;4.47;;;;;;;-148.88;100.00;-17125.47;5032758;28;20017;-87
2024/01/17 07:07:55;;;;;;;9.38;3.85;;;;;;;-148.88;100.00;-17125.47;5033971;28;20029;-87
2024/01/17 07:10:20;;;;;;;15.13;4.65;;;;;;;-148.88;100.00;-17125.47;5034397;28;20421;-87
2024/01/17 07:12:45;;;;;;;12.00;5.13;;;;;;;-148.88;100.00;-17125.47;5034099;28;20561;-85
2024/01/17 07:15:15;;;;;;;11.13;4.13;;;;;;;-148.88;100.00;-17125.47;5033036;28;20036;-87
2024/01/17 07:17:40;;;;;;;11.90;3.85;;;;;;;-148.88;100.00;-17125.47;5032964;28;20486;-87
2024/01/17 07:20:07;;;;;;;6.55;3.03;;;;;;;-148.88;100.00;-17125.47;5032425;28;20061;-89
2024/01/17 07:22:32;;;;;;;11.38;3.78;;;;;;;-148.88;100.00;-17125.47;5033190;28;20053;-88
2024/01/17 07:24:58;;;;;;;10.63;3.80;;;;;;;-148.88;100.00;-17125.47;5033729;28;20488;-88
2024/01/17 07:27:23;;;;;;;10.02;4.45;;;;;;;-148.88;100.00;-17125.47;5033809;28;20391;-87
2024/01/17 07:29:49;;;;;;;8.00;3.67;;;;;;;-148.88;100.00;-17125.47;5032787;28;20056;-89
2024/01/17 07:32:14;;;;;;;14.23;5.03;;;;;;;-148.88;100.00;-17125.47;5033156;28;20116;-87
2024/01/17 07:34:39;;;;;;;13.45;4.78;;;;;;;-148.88;100.00;-17125.47;5035911;28;20053;-87
2024/01/17 07:37:05;;;;;;;10.32;5.20;;;;;;;-148.88;100.00;-17125.47;5032482;28;20033;-88
2024/01/17 07:39:30;;;;;;;14.23;5.65;;;;;;;-148.88;100.00;-17125.47;5032348;28;20075;-88
2024/01/17 07:41:56;;;;;;;9.40;5.10;;;;;;;-148.88;100.00;-17125.47;5033588;28;20103;-87
2024/01/17 07:44:26;;;;;;;10.70;4.40;;;;;;;-148.88;100.00;-17125.47;5033420;28;20033;-87
2024/01/17 07:46:51;;;;;;;10.05;4.57;;;;;;;-148.88;100.00;-17125.47;5033032;28;20478;-89
2024/01/17 07:49:19;;;;;;;14.25;5.03;;;;;;;-148.88;100.00;-17125.47;5032411;28;20036;-87
2024/01/17 07:51:44;;;;;;;12.88;4.78;;;;;;;-148.88;100.00;-17125.47;5032842;28;20025;-89
2024/01/17 07:54:10;;;;;;;10.80;4.18;;;;;;;-148.88;100.00;-17125.47;5033703;28;20021;-87
2024/01/17 07:56:35;;;;;;;10.38;4.95;;;;;;;-148.88;100.00;-17125.47;5033853;28;20104;-87
2024/01/17 07:59:00;;;;;;;10.45;5.32;;;;;;;-148.88;100.00;-17125.47;5033858;28;20072;-86
2024/01/17 08:01:34;;;;;;;10.23;4.25;;;;;;;-148.88;100.00;-17125.47;5033223;28;20556;-87
2024/01/17 08:03:59;;;;;;;;;;;;;;;-148.88;100.00;-17125.47;5033021;28;20025;-86
2024/01/17 08:06:25;;;;;;;8.95;5.10;;;;;;;-148.88;100.00;-17125.47;5032298;28;19956;-88
2024/01/17 08:08:50;;;;;;;18.92;5.22;;;;;;;-148.88;100.00;-17125.47;5032375;28;20021;-87
2024/01/17 08:11:15;;;;;;;16.38;4.60;;;;;;;-148.88;100.00;-17125.47;5033194;28;20029;-86
2024/01/17 08:13:41;;;;;;;14.35;4.63;;;;;;;-148.88;100.00;-17125.47;5033375;28;20018;-86
2024/01/17 08:16:06;;;;;;;9.82;4.57;;;;;;;-148.88;100.00;-17125.47;5031747;28;20033;-87
2024/01/17 08:18:31;;;;;;;15.35;5.07;;;;;;;-148.88;100.00;-17125.47;5034024;28;20029;-86
2024/01/17 08:20:57;;;;;;;13.43;5.85;;;;;;;-148.88;100.00;-17125.47;5035765;28;20083;-87
2024/01/17 08:23:22;;;;;;;15.43;5.47;;;;;;;-148.88;100.00;-17125.47;5035694;28;20026;-87
2024/01/17 08:25:48;;;;;;;12.73;4.93;;;;;;;-148.88;100.00;-17125.47;5035670;28;20113;-86
2024/01/17 08:28:13;;;;;;;12.45;5.38;;;;;;;-148.88;100.00;-17125.47;5037160;28;20026;-86
2024/01/17 08:30:38;;;;;;;13.70;6.20;;;;;;;-148.88;100.00;-17125.47;5035587;28;20112;-86
2024/01/17 08:33:04;;;;;;;16.35;6.78;;;;;;;-148.88;100.00;-17125.47;5035567;28;20064;-85
2024/01/17 08:35:30;;;;;;;15.52;6.00;;;;;;;-148.88;100.00;-17125.47;5037019;28;20028;-86
2024/01/17 08:37:55;;;;;;;14.73;5.78;;;;;;;-148.88;100.00;-17125.47;5037091;28;20026;-88
2024/01/17 08:40:21;;;;;;;13.77;6.05;;;;;;;-148.88;100.00;-17125.47;5036847;28;20025;-86
2024/01/17 08:42:46;;;;;;;13.05;5.28;;;;;;;-148.88;100.00;-17125.47;5035426;28;20025;-86
2024/01/17 08:45:12;;;;;;;10.43;4.95;;;;;;;-148.88;100.00;-17125.47;5036534;28;20025;-87
2024/01/17 08:47:38;;;;;;;13.02;5.65;;;;;;;-148.88;100.00;-17125.47;5036630;28;20038;-87
2024/01/17 08:50:03;;;;;;;14.93;6.07;;;;;;;-148.88;100.00;-17125.47;5035286;28;20025;-86
2024/01/17 08:52:38;;;;;;;16.92;6.85;;;;;;;-148.88;100.00;-17125.47;5036715;28;20151;-86
2024/01/17 08:55:08;;;;;;;15.20;5.60;;;;;;;-148.88;100.00;-17125.47;5035164;28;20025;-87
2024/01/17 08:57:34;;;;;;;13.82;6.38;;;;;;;-148.88;100.00;-17125.47;5035318;28;20021;-86
2024/01/17 09:00:00;;;;;;;19.58;7.03;;;;;;;-148.88;100.00;-17125.47;5036070;28;20029;-88
2024/01/17 09:02:25;;;;;;;13.63;5.63;;;;;;;-148.88;100.00;-17125.47;5036197;28;20025;-87
2024/01/17 09:04:50;;;;;;;16.38;5.82;;;;;;;-148.88;100.00;-17125.47;5036360;28;20033;-86
2024/01/17 09:07:16;;;;;;;12.48;6.10;;;;;;;-148.88;100.00;-17125.47;5034849;28;20115;-86
2024/01/17 09:09:41;;;;;;;16.65;6.22;;;;;;;-148.88;100.00;-17125.47;5036499;28;20037;-87
2024/01/17 09:12:07;;;;;;;13.77;5.55;;;;;;;-148.88;100.00;-17125.47;5037153;28;20025;-88
2024/01/17 09:14:33;;;;;;;13.63;6.13;;;;;;;-148.88;100.00;-17125.47;5036112;28;20032;-87
2024/01/17 09:16:58;;;;;;;15.68;5.95;;;;;;;-148.88;100.00;-17125.47;5035383;28;20033;-87
2024/01/17 09:19:26;;;;;;;15.60;6.40;;;;;;;-148.88;100.00;-17125.47;5034898;28;20029;-86
2024/01/17 09:21:55;;;;;;;17.55;6.32;;;;;;;-148.88;100.00;-17125.47;5036772;28;20472;-86
2024/01/17 09:24:23;;;;;;;12.73;6.00;;;;;;;-148.88;100.00;-17125.47;5034721;28;20116;-86
2024/01/17 09:26:51;;;;;;;11.98;5.75;;;;;;;-148.88;100.00;-17125.47;5034912;28;20037;-86
2024/01/17 09:29:18;;;;;;;16.13;5.82;;;;;;;-148.88;100.00;-17125.47;5035977;28;20073;-86
2024/01/17 09:31:44;;;;;;;11.95;5.55;;;;;;;-148.88;100.00;-17125.47;5036330;28;20517;-86
2024/01/17 09:34:09;;;;;;;16.45;6.57;;;;;;;-148.88;100.00;-17125.47;5035986;28;20024;-86
2024/01/17 09:36:34;;;;;;;25.52;7.32;;;;;;;-148.88;100.00;-17125.47;5036135;28;20025;-86
2024/01/17 09:39:00;;;;;;;15.05;6.65;;;;;;;-148.88;100.00;-17125.47;5034309;28;20439;-86
2024/01/17 09:41:25;;;;;;;17.20;6.85;;;;;;;-148.88;100.00;-17125.47;5035482;28;20029;-86
2024/01/17 09:43:51;;;;;;;15.13;6.30;;;;;;;-148.88;100.00;-17125.47;5034357;28;20141;-84
2024/01/17 09:46:17;;;;;;;18.83;6.57;;;;;;;-148.88;100.00;-17125.47;5035889;28;20029;-86
2024/01/17 09:48:43;;;;;;;15.50;6.60;;;;;;;-148.88;100.00;-17125.47;5035689;28;20053;-86
2024/01/17 09:51:19;;;;;;;21.27;7.05;;;;;;;-148.88;100.00;-17125.47;5035532;28;20025;-86
2024/01/17 09:53:47;;;;;;;13.52;6.20;;;;;;;-148.88;100.00;-17125.47;5035139;28;20052;-85
2024/01/17 09:56:16;;;;;;;12.43;6.22;;;;;;;-148.88;100.00;-17125.47;5035408;28;20017;-86
2024/01/17 09:58:44;;;;;;;16.25;6.85;;;;;;;-148.88;100.00;-17125.47;5033953;28;20049;-87
2024/01/17 10:01:11;;;;;;;15.98;6.13;;;;;;;-148.88;100.00;-17125.47;5033884;28;20048;-87
2024/01/17 10:03:39;;;;;;;18.45;7.65;;;;;;;-148.88;100.00;-17125.47;5034952;28;20026;-87
2024/01/17 10:06:07;;;;;;;19.65;7.15;;;;;;;-148.88;100.00;-17125.47;5033673;28;20108;-87
2024/01/17 10:08:33;;;;;;;20.50;7.30;;;;;;;-148.88;100.00;-17125.47;5035359;28;20436;-87
2024/01/17 10:10:58;;;;;;;17.10;7.07;;;;;;;-148.88;100.00;-17125.47;5034343;28;20530;-86
2024/01/17 10:13:24;;;;;;;18.02;7.80;;;;;;;-148.88;100.00;-17125.47;5034851;28;20064;-87
2024/01/17 10:15:49;;;;;;;15.35;6.75;;;;;;;-148.88;100.00;-17125.47;5034967;28;20083;-86
2024/01/17 10:18:15;;;;;;;15.68;7.78;;;;;;;-148.88;100.00;-17125.47;5035201;28;20029;-87
2024/01/17 10:20:42;;;;;;;18.88;7.57;;;;;;;-148.88;100.00;-17125.47;5033717;28;20036;-86
2024/01/17 10:23:07;;;;;;;19.27;6.90;;;;;;;-148.88;100.00;-17125.47;5034705;28;20464;-86
2024/01/17 10:25:37;;;;;;;19.10;7.50;;;;;;;-148.88;100.00;-17125.47;5033258;28;20065;-86
2024/01/17 10:28:03;;;;;;;14.85;6.60;;;;;;;-148.88;100.00;-17125.47;5033678;28;20071;-87
2024/01/17 10:30:28;;;;;;;18.15;8.52;;;;;;;-148.88;100.00;-17125.47;5033437;28;20061;-87
2024/01/17 10:32:56;;;;;;;18.02;7.32;;;;;;;-148.88;100.00;-17125.47;5033126;28;20021;-87
2024/01/17 10:35:23;;;;;;;15.80;7.55;;;;;;;-148.88;100.00;-17125.47;5033390;28;20021;-85
2024/01/17 10:37:51;;;;;;;19.63;8.75;;;;;;;-148.88;100.00;-17125.47;5034732;28;20025;-86
2024/01/17 10:40:21;;;;;;;18.88;7.13;;;;;;;-148.88;100.00;-17125.47;5034137;28;20033;-85
2024/01/17 10:42:46;;;;;;;21.90;7.50;;;;;;;-148.88;100.00;-17125.47;5033993;28;20070;-86
2024/01/17 10:45:22;;;;;;;17.85;7.50;;;;;;;-148.88;100.00;-17125.47;5034633;28;20041;-86
2024/01/17 10:47:50;;;;;;;20.63;8.80;;;;;;;-148.88;100.00;-17125.47;5033951;28;20045;-85
2024/01/17 10:50:16;;;;;;;15.10;7.30;;;;;;;-148.88;100.00;-17125.47;5033226;28;20112;-84
2024/01/17 10:52:43;;;;;;;16.33;8.15;;;;;;;-148.88;100.00;-17125.47;5033161;28;20022;-86
2024/01/17 10:55:10;;;;;;;15.02;7.18;;;;;;;-148.88;100.00;-17125.47;5034960;28;20048;-86